sensor_id;sensor_type;location;lat;lon;timestamp;P1;durP1;ratioP1;P2;durP2;ratioP2
62796;SDS011;48839;48.546;-4.178;2024-02-26T00:01:32;11.73;;;2.15;;
62796;SDS011;48839;48.546;-4.178;2024-02-26T00:03:59;11.35;;;2.03;;
62796;SDS011;48839;48.546;-4.178;2024-02-26T00:06:27;5.95;;;2.10;;
62796;SDS011;48839;48.546;-4.178;2024-02-26T00:08:53;6.57;;;1.52;;
62796;SDS011;48839;48.546;-4.178;2024-02-26T00:11:26;3.00;;;0.73;;
62796;SDS011;48839;48.546;-4.178;2024-02-26T00:13:53;0.95;;;0.60;;
62796;SDS011;48839;48.546;-4.178;2024-02-26T00:16:20;0.65;;;0.60;;
62796;SDS011;48839;48.546;-4.178;2024-02-26T00:18:51;1.05;;;0.57;;
62796;SDS011;48839;48.546;-4.178;2024-02-26T00:26:19;8.90;;;1.95;;
62796;SDS011;48839;48.546;-4.178;2024-02-26T00:28:53;4.00;;;0.85;;
62796;SDS011;48839;48.546;-4.178;2024-02-26T00:31:31;4.05;;;1.10;;
62796;SDS011;48839;48.546;-4.178;2024-02-26T00:34:02;8.23;;;1.50;;
62796;SDS011;48839;48.546;-4.178;2024-02-26T00:39:18;3.50;;;1.00;;
62796;SDS011;48839;48.546;-4.178;2024-02-26T00:41:46;12.63;;;2.67;;
62796;SDS011;48839;48.546;-4.178;2024-02-26T00:44:19;7.53;;;1.27;;
62796;SDS011;48839;48.546;-4.178;2024-02-26T00:46:45;6.40;;;1.83;;
62796;SDS011;48839;48.546;-4.178;2024-02-26T00:52:15;3.33;;;1.40;;
62796;SDS011;48839;48.546;-4.178;2024-02-26T00:57:49;10.65;;;1.63;;
62796;SDS011;48839;48.546;-4.178;2024-02-26T01:00:16;5.10;;;1.60;;
62796;SDS011;48839;48.546;-4.178;2024-02-26T01:02:51;10.18;;;2.00;;
62796;SDS011;48839;48.546;-4.178;2024-02-26T01:07:48;5.45;;;1.67;;
62796;SDS011;48839;48.546;-4.178;2024-02-26T01:10:21;11.35;;;1.73;;
62796;SDS011;48839;48.546;-4.178;2024-02-26T01:13:00;15.15;;;1.70;;
62796;SDS011;48839;48.546;-4.178;2024-02-26T01:15:28;3.22;;;1.30;;
62796;SDS011;48839;48.546;-4.178;2024-02-26T01:17:57;4.75;;;1.25;;
62796;SDS011;48839;48.546;-4.178;2024-02-26T01:20:32;12.30;;;2.40;;
62796;SDS011;48839;48.546;-4.178;2024-02-26T01:28:40;12.50;;;1.95;;
62796;SDS011;48839;48.546;-4.178;2024-02-26T01:33:45;8.70;;;1.88;;
62796;SDS011;48839;48.546;-4.178;2024-02-26T01:41:34;5.65;;;1.48;;
62796;SDS011;48839;48.546;-4.178;2024-02-26T01:44:11;2.78;;;1.63;;
62796;SDS011;48839;48.546;-4.178;2024-02-26T01:46:50;14.73;;;2.22;;
62796;SDS011;48839;48.546;-4.178;2024-02-26T01:55:20;4.85;;;2.00;;
62796;SDS011;48839;48.546;-4.178;2024-02-26T01:58:03;7.80;;;2.15;;
62796;SDS011;48839;48.546;-4.178;2024-02-26T02:00:37;8.15;;;2.60;;
62796;SDS011;48839;48.546;-4.178;2024-02-26T02:06:07;10.13;;;2.10;;
62796;SDS011;48839;48.546;-4.178;2024-02-26T02:08:33;10.48;;;2.17;;
62796;SDS011;48839;48.546;-4.178;2024-02-26T02:11:01;7.40;;;1.58;;
62796;SDS011;48839;48.546;-4.178;2024-02-26T02:13:42;12.27;;;2.67;;
62796;SDS011;48839;48.546;-4.178;2024-02-26T02:18:41;9.48;;;2.13;;
62796;SDS011;48839;48.546;-4.178;2024-02-26T02:21:07;8.65;;;3.63;;
62796;SDS011;48839;48.546;-4.178;2024-02-26T02:23:39;5.68;;;2.00;;
62796;SDS011;48839;48.546;-4.178;2024-02-26T02:26:07;4.78;;;1.67;;
62796;SDS011;48839;48.546;-4.178;2024-02-26T02:28:45;17.77;;;2.58;;
62796;SDS011;48839;48.546;-4.178;2024-02-26T02:33:42;7.55;;;2.08;;
62796;SDS011;48839;48.546;-4.178;2024-02-26T02:36:14;4.60;;;1.58;;
62796;SDS011;48839;48.546;-4.178;2024-02-26T02:38:54;5.05;;;1.67;;
62796;SDS011;48839;48.546;-4.178;2024-02-26T02:49:17;8.75;;;2.17;;
62796;SDS011;48839;48.546;-4.178;2024-02-26T02:51:44;6.25;;;1.85;;
62796;SDS011;48839;48.546;-4.178;2024-02-26T02:54:12;9.27;;;2.22;;
62796;SDS011;48839;48.546;-4.178;2024-02-26T02:59:30;11.18;;;2.50;;
62796;SDS011;48839;48.546;-4.178;2024-02-26T03:01:59;14.00;;;2.33;;
62796;SDS011;48839;48.546;-4.178;2024-02-26T03:07:14;5.20;;;1.50;;
62796;SDS011;48839;48.546;-4.178;2024-02-26T03:09:40;7.90;;;2.55;;
62796;SDS011;48839;48.546;-4.178;2024-02-26T03:12:12;10.13;;;2.10;;
62796;SDS011;48839;48.546;-4.178;2024-02-26T03:14:40;7.72;;;1.98;;
62796;SDS011;48839;48.546;-4.178;2024-02-26T03:17:13;6.10;;;2.10;;
62796;SDS011;48839;48.546;-4.178;2024-02-26T03:22:38;8.73;;;2.40;;
62796;SDS011;48839;48.546;-4.178;2024-02-26T03:25:14;10.93;;;2.25;;
62796;SDS011;48839;48.546;-4.178;2024-02-26T03:27:41;10.48;;;2.30;;
62796;SDS011;48839;48.546;-4.178;2024-02-26T03:30:07;14.00;;;2.80;;
62796;SDS011;48839;48.546;-4.178;2024-02-26T03:32:35;14.55;;;3.20;;
62796;SDS011;48839;48.546;-4.178;2024-02-26T03:35:01;5.90;;;2.38;;
62796;SDS011;48839;48.546;-4.178;2024-02-26T03:37:28;13.02;;;3.05;;
62796;SDS011;48839;48.546;-4.178;2024-02-26T03:39:54;10.65;;;2.28;;
62796;SDS011;48839;48.546;-4.178;2024-02-26T03:42:26;10.48;;;2.60;;
62796;SDS011;48839;48.546;-4.178;2024-02-26T03:44:52;7.18;;;2.40;;
62796;SDS011;48839;48.546;-4.178;2024-02-26T03:47:21;9.30;;;3.33;;
62796;SDS011;48839;48.546;-4.178;2024-02-26T03:49:50;4.63;;;1.80;;
62796;SDS011;48839;48.546;-4.178;2024-02-26T03:52:16;5.78;;;1.95;;
62796;SDS011;48839;48.546;-4.178;2024-02-26T03:54:42;6.50;;;2.22;;
62796;SDS011;48839;48.546;-4.178;2024-02-26T03:57:09;7.25;;;2.10;;
62796;SDS011;48839;48.546;-4.178;2024-02-26T03:59:35;9.55;;;2.75;;
62796;SDS011;48839;48.546;-4.178;2024-02-26T04:02:01;4.70;;;1.90;;
62796;SDS011;48839;48.546;-4.178;2024-02-26T04:04:27;6.63;;;1.98;;
62796;SDS011;48839;48.546;-4.178;2024-02-26T04:06:54;8.52;;;2.85;;
62796;SDS011;48839;48.546;-4.178;2024-02-26T04:09:20;8.82;;;2.15;;
62796;SDS011;48839;48.546;-4.178;2024-02-26T04:11:46;9.50;;;2.60;;
62796;SDS011;48839;48.546;-4.178;2024-02-26T04:14:12;7.53;;;2.53;;
62796;SDS011;48839;48.546;-4.178;2024-02-26T04:16:38;4.32;;;2.75;;
62796;SDS011;48839;48.546;-4.178;2024-02-26T04:19:05;12.60;;;2.65;;
62796;SDS011;48839;48.546;-4.178;2024-02-26T04:21:32;11.77;;;3.20;;
62796;SDS011;48839;48.546;-4.178;2024-02-26T04:23:58;7.22;;;2.65;;
62796;SDS011;48839;48.546;-4.178;2024-02-26T04:26:27;10.18;;;2.60;;
62796;SDS011;48839;48.546;-4.178;2024-02-26T04:28:54;11.35;;;2.83;;
62796;SDS011;48839;48.546;-4.178;2024-02-26T04:31:20;10.07;;;3.17;;
62796;SDS011;48839;48.546;-4.178;2024-02-26T04:33:46;7.88;;;2.20;;
62796;SDS011;48839;48.546;-4.178;2024-02-26T04:36:15;13.13;;;3.22;;
62796;SDS011;48839;48.546;-4.178;2024-02-26T04:38:45;9.93;;;1.83;;
62796;SDS011;48839;48.546;-4.178;2024-02-26T04:41:19;9.88;;;2.67;;
62796;SDS011;48839;48.546;-4.178;2024-02-26T04:43:46;13.15;;;3.13;;
62796;SDS011;48839;48.546;-4.178;2024-02-26T04:46:13;4.03;;;1.85;;
62796;SDS011;48839;48.546;-4.178;2024-02-26T04:51:10;12.27;;;2.95;;
62796;SDS011;48839;48.546;-4.178;2024-02-26T04:53:37;6.53;;;2.08;;
62796;SDS011;48839;48.546;-4.178;2024-02-26T04:56:04;7.68;;;2.33;;
62796;SDS011;48839;48.546;-4.178;2024-02-26T04:58:33;12.38;;;3.45;;
62796;SDS011;48839;48.546;-4.178;2024-02-26T05:01:01;10.07;;;3.22;;
62796;SDS011;48839;48.546;-4.178;2024-02-26T05:03:33;15.90;;;3.38;;
62796;SDS011;48839;48.546;-4.178;2024-02-26T05:06:07;8.73;;;2.75;;
62796;SDS011;48839;48.546;-4.178;2024-02-26T05:08:35;19.00;;;3.85;;
62796;SDS011;48839;48.546;-4.178;2024-02-26T05:11:04;11.27;;;3.10;;
62796;SDS011;48839;48.546;-4.178;2024-02-26T05:13:31;14.65;;;3.65;;
62796;SDS011;48839;48.546;-4.178;2024-02-26T05:15:57;10.88;;;2.90;;
62796;SDS011;48839;48.546;-4.178;2024-02-26T05:18:25;9.55;;;3.05;;
62796;SDS011;48839;48.546;-4.178;2024-02-26T05:20:51;13.13;;;2.90;;
62796;SDS011;48839;48.546;-4.178;2024-02-26T05:23:17;16.40;;;3.45;;
62796;SDS011;48839;48.546;-4.178;2024-02-26T05:25:43;14.82;;;3.83;;
62796;SDS011;48839;48.546;-4.178;2024-02-26T05:28:12;9.63;;;2.70;;
62796;SDS011;48839;48.546;-4.178;2024-02-26T05:30:40;13.70;;;3.80;;
62796;SDS011;48839;48.546;-4.178;2024-02-26T05:33:06;9.80;;;3.00;;
62796;SDS011;48839;48.546;-4.178;2024-02-26T05:35:33;9.48;;;3.33;;
62796;SDS011;48839;48.546;-4.178;2024-02-26T05:37:59;15.68;;;3.92;;
62796;SDS011;48839;48.546;-4.178;2024-02-26T05:40:25;15.55;;;3.08;;
62796;SDS011;48839;48.546;-4.178;2024-02-26T05:42:51;7.03;;;2.50;;
62796;SDS011;48839;48.546;-4.178;2024-02-26T05:45:17;6.32;;;2.70;;
62796;SDS011;48839;48.546;-4.178;2024-02-26T05:47:44;14.15;;;3.95;;
62796;SDS011;48839;48.546;-4.178;2024-02-26T05:50:10;11.02;;;3.33;;
62796;SDS011;48839;48.546;-4.178;2024-02-26T05:52:37;6.05;;;2.53;;
62796;SDS011;48839;48.546;-4.178;2024-02-26T05:55:06;12.27;;;3.13;;
62796;SDS011;48839;48.546;-4.178;2024-02-26T05:57:33;14.95;;;3.58;;
62796;SDS011;48839;48.546;-4.178;2024-02-26T05:59:59;12.55;;;2.90;;
62796;SDS011;48839;48.546;-4.178;2024-02-26T06:02:29;8.80;;;2.85;;
62796;SDS011;48839;48.546;-4.178;2024-02-26T06:04:55;9.25;;;2.65;;
62796;SDS011;48839;48.546;-4.178;2024-02-26T06:07:21;12.50;;;2.97;;
62796;SDS011;48839;48.546;-4.178;2024-02-26T06:09:48;14.27;;;4.20;;
62796;SDS011;48839;48.546;-4.178;2024-02-26T06:12:14;8.85;;;3.30;;
62796;SDS011;48839;48.546;-4.178;2024-02-26T06:14:41;6.57;;;2.70;;
62796;SDS011;48839;48.546;-4.178;2024-02-26T06:17:08;11.50;;;3.72;;
62796;SDS011;48839;48.546;-4.178;2024-02-26T06:19:34;13.75;;;3.35;;
62796;SDS011;48839;48.546;-4.178;2024-02-26T06:22:00;16.17;;;3.97;;
62796;SDS011;48839;48.546;-4.178;2024-02-26T06:24:26;20.08;;;3.63;;
62796;SDS011;48839;48.546;-4.178;2024-02-26T06:26:53;13.80;;;3.20;;
62796;SDS011;48839;48.546;-4.178;2024-02-26T06:29:19;10.55;;;2.65;;
62796;SDS011;48839;48.546;-4.178;2024-02-26T06:31:45;10.80;;;3.42;;
62796;SDS011;48839;48.546;-4.178;2024-02-26T06:34:13;9.48;;;3.25;;
62796;SDS011;48839;48.546;-4.178;2024-02-26T06:36:39;11.73;;;3.45;;
62796;SDS011;48839;48.546;-4.178;2024-02-26T06:39:05;9.00;;;3.20;;
62796;SDS011;48839;48.546;-4.178;2024-02-26T06:41:33;11.90;;;3.28;;
62796;SDS011;48839;48.546;-4.178;2024-02-26T06:43:59;15.60;;;3.50;;
62796;SDS011;48839;48.546;-4.178;2024-02-26T06:46:25;14.88;;;3.47;;
62796;SDS011;48839;48.546;-4.178;2024-02-26T06:48:54;10.30;;;2.67;;
62796;SDS011;48839;48.546;-4.178;2024-02-26T06:51:20;8.02;;;2.80;;
62796;SDS011;48839;48.546;-4.178;2024-02-26T06:53:46;14.85;;;3.45;;
62796;SDS011;48839;48.546;-4.178;2024-02-26T06:56:12;18.90;;;4.20;;
62796;SDS011;48839;48.546;-4.178;2024-02-26T06:58:38;8.15;;;3.15;;
62796;SDS011;48839;48.546;-4.178;2024-02-26T07:01:05;14.48;;;3.08;;
62796;SDS011;48839;48.546;-4.178;2024-02-26T07:03:33;7.57;;;3.13;;
62796;SDS011;48839;48.546;-4.178;2024-02-26T07:05:59;16.65;;;3.45;;
62796;SDS011;48839;48.546;-4.178;2024-02-26T07:08:25;11.40;;;2.55;;
62796;SDS011;48839;48.546;-4.178;2024-02-26T07:10:51;15.65;;;3.38;;
62796;SDS011;48839;48.546;-4.178;2024-02-26T07:13:18;15.20;;;4.18;;
62796;SDS011;48839;48.546;-4.178;2024-02-26T07:15:44;7.70;;;2.83;;
62796;SDS011;48839;48.546;-4.178;2024-02-26T07:18:10;16.95;;;4.15;;
62796;SDS011;48839;48.546;-4.178;2024-02-26T07:20:36;9.15;;;2.60;;
62796;SDS011;48839;48.546;-4.178;2024-02-26T07:23:03;9.60;;;2.75;;
62796;SDS011;48839;48.546;-4.178;2024-02-26T07:25:29;11.73;;;3.03;;
62796;SDS011;48839;48.546;-4.178;2024-02-26T07:27:55;8.77;;;3.10;;
62796;SDS011;48839;48.546;-4.178;2024-02-26T07:30:21;12.18;;;2.92;;
62796;SDS011;48839;48.546;-4.178;2024-02-26T07:32:49;13.93;;;3.80;;
62796;SDS011;48839;48.546;-4.178;2024-02-26T07:35:15;10.68;;;2.65;;
62796;SDS011;48839;48.546;-4.178;2024-02-26T07:37:42;11.50;;;3.20;;
62796;SDS011;48839;48.546;-4.178;2024-02-26T07:40:09;9.88;;;2.95;;
62796;SDS011;48839;48.546;-4.178;2024-02-26T07:42:35;8.32;;;2.10;;
62796;SDS011;48839;48.546;-4.178;2024-02-26T07:45:02;12.10;;;3.28;;
62796;SDS011;48839;48.546;-4.178;2024-02-26T07:47:28;13.63;;;2.85;;
62796;SDS011;48839;48.546;-4.178;2024-02-26T07:49:55;9.45;;;3.10;;
62796;SDS011;48839;48.546;-4.178;2024-02-26T07:52:21;11.82;;;2.95;;
62796;SDS011;48839;48.546;-4.178;2024-02-26T07:54:47;10.85;;;3.50;;
62796;SDS011;48839;48.546;-4.178;2024-02-26T07:57:14;16.02;;;3.30;;
62796;SDS011;48839;48.546;-4.178;2024-02-26T07:59:42;11.98;;;2.55;;
62796;SDS011;48839;48.546;-4.178;2024-02-26T08:02:10;9.70;;;2.92;;
62796;SDS011;48839;48.546;-4.178;2024-02-26T08:04:36;8.05;;;3.22;;
62796;SDS011;48839;48.546;-4.178;2024-02-26T08:07:03;12.20;;;3.05;;
62796;SDS011;48839;48.546;-4.178;2024-02-26T08:09:29;6.32;;;2.40;;
62796;SDS011;48839;48.546;-4.178;2024-02-26T08:11:56;11.80;;;3.65;;
62796;SDS011;48839;48.546;-4.178;2024-02-26T08:14:22;10.60;;;2.63;;
62796;SDS011;48839;48.546;-4.178;2024-02-26T08:16:48;7.45;;;2.92;;
62796;SDS011;48839;48.546;-4.178;2024-02-26T08:19:14;8.65;;;2.60;;
62796;SDS011;48839;48.546;-4.178;2024-02-26T08:21:44;13.93;;;3.78;;
62796;SDS011;48839;48.546;-4.178;2024-02-26T08:24:10;10.07;;;2.92;;
62796;SDS011;48839;48.546;-4.178;2024-02-26T08:26:36;10.77;;;2.85;;
62796;SDS011;48839;48.546;-4.178;2024-02-26T08:29:02;11.25;;;2.97;;
62796;SDS011;48839;48.546;-4.178;2024-02-26T08:31:28;5.43;;;2.40;;
62796;SDS011;48839;48.546;-4.178;2024-02-26T08:33:55;12.43;;;3.05;;
62796;SDS011;48839;48.546;-4.178;2024-02-26T08:36:22;6.93;;;2.50;;
62796;SDS011;48839;48.546;-4.178;2024-02-26T08:38:48;11.63;;;2.75;;
62796;SDS011;48839;48.546;-4.178;2024-02-26T08:41:15;11.68;;;3.28;;
62796;SDS011;48839;48.546;-4.178;2024-02-26T08:43:41;12.60;;;3.30;;
62796;SDS011;48839;48.546;-4.178;2024-02-26T08:46:10;15.25;;;3.30;;
62796;SDS011;48839;48.546;-4.178;2024-02-26T08:48:38;8.90;;;2.65;;
62796;SDS011;48839;48.546;-4.178;2024-02-26T08:51:05;10.63;;;2.42;;
62796;SDS011;48839;48.546;-4.178;2024-02-26T08:53:32;11.40;;;2.85;;
62796;SDS011;48839;48.546;-4.178;2024-02-26T08:55:58;17.13;;;3.53;;
62796;SDS011;48839;48.546;-4.178;2024-02-26T08:58:24;10.23;;;3.03;;
62796;SDS011;48839;48.546;-4.178;2024-02-26T09:00:50;6.55;;;3.22;;
62796;SDS011;48839;48.546;-4.178;2024-02-26T09:03:17;8.40;;;3.20;;
62796;SDS011;48839;48.546;-4.178;2024-02-26T09:05:43;11.93;;;2.95;;
62796;SDS011;48839;48.546;-4.178;2024-02-26T09:08:09;11.35;;;3.85;;
62796;SDS011;48839;48.546;-4.178;2024-02-26T09:10:35;10.07;;;2.22;;
62796;SDS011;48839;48.546;-4.178;2024-02-26T09:13:02;7.75;;;2.63;;
62796;SDS011;48839;48.546;-4.178;2024-02-26T09:15:28;18.38;;;3.55;;
62796;SDS011;48839;48.546;-4.178;2024-02-26T09:17:54;5.82;;;2.65;;
62796;SDS011;48839;48.546;-4.178;2024-02-26T09:20:20;10.35;;;3.05;;
62796;SDS011;48839;48.546;-4.178;2024-02-26T09:22:48;8.02;;;2.65;;
62796;SDS011;48839;48.546;-4.178;2024-02-26T09:25:15;13.30;;;3.28;;
62796;SDS011;48839;48.546;-4.178;2024-02-26T09:27:42;12.02;;;2.65;;
62796;SDS011;48839;48.546;-4.178;2024-02-26T09:30:11;6.97;;;2.20;;
62796;SDS011;48839;48.546;-4.178;2024-02-26T09:32:38;12.48;;;3.42;;
62796;SDS011;48839;48.546;-4.178;2024-02-26T09:35:04;13.60;;;4.00;;
62796;SDS011;48839;48.546;-4.178;2024-02-26T09:37:30;9.02;;;3.15;;
62796;SDS011;48839;48.546;-4.178;2024-02-26T09:39:56;8.05;;;2.45;;
62796;SDS011;48839;48.546;-4.178;2024-02-26T09:42:24;11.23;;;2.58;;
62796;SDS011;48839;48.546;-4.178;2024-02-26T09:44:51;9.27;;;2.53;;
62796;SDS011;48839;48.546;-4.178;2024-02-26T09:47:20;9.43;;;2.58;;
62796;SDS011;48839;48.546;-4.178;2024-02-26T09:49:47;9.50;;;2.50;;
62796;SDS011;48839;48.546;-4.178;2024-02-26T09:52:14;6.47;;;2.10;;
62796;SDS011;48839;48.546;-4.178;2024-02-26T09:54:41;5.57;;;2.33;;
62796;SDS011;48839;48.546;-4.178;2024-02-26T09:57:07;7.57;;;3.25;;
62796;SDS011;48839;48.546;-4.178;2024-02-26T09:59:40;6.28;;;2.10;;
62796;SDS011;48839;48.546;-4.178;2024-02-26T10:02:11;9.05;;;2.13;;
62796;SDS011;48839;48.546;-4.178;2024-02-26T10:04:38;12.43;;;2.40;;
62796;SDS011;48839;48.546;-4.178;2024-02-26T10:07:09;13.40;;;3.20;;
62796;SDS011;48839;48.546;-4.178;2024-02-26T10:09:35;20.33;;;3.35;;
62796;SDS011;48839;48.546;-4.178;2024-02-26T10:12:02;7.82;;;2.55;;
62796;SDS011;48839;48.546;-4.178;2024-02-26T10:14:29;8.82;;;2.25;;
62796;SDS011;48839;48.546;-4.178;2024-02-26T10:16:55;10.00;;;2.60;;
62796;SDS011;48839;48.546;-4.178;2024-02-26T10:19:26;6.18;;;2.53;;
62796;SDS011;48839;48.546;-4.178;2024-02-26T10:22:00;5.70;;;2.33;;
62796;SDS011;48839;48.546;-4.178;2024-02-26T10:24:27;10.88;;;2.20;;
62796;SDS011;48839;48.546;-4.178;2024-02-26T10:26:56;7.95;;;2.22;;
62796;SDS011;48839;48.546;-4.178;2024-02-26T10:29:26;8.63;;;2.13;;
62796;SDS011;48839;48.546;-4.178;2024-02-26T10:31:52;5.68;;;2.40;;
62796;SDS011;48839;48.546;-4.178;2024-02-26T10:34:19;9.00;;;2.47;;
62796;SDS011;48839;48.546;-4.178;2024-02-26T10:36:45;8.25;;;2.47;;
62796;SDS011;48839;48.546;-4.178;2024-02-26T10:39:11;10.65;;;3.25;;
62796;SDS011;48839;48.546;-4.178;2024-02-26T10:41:39;17.15;;;2.42;;
62796;SDS011;48839;48.546;-4.178;2024-02-26T10:44:06;9.93;;;2.67;;
62796;SDS011;48839;48.546;-4.178;2024-02-26T10:46:34;10.77;;;2.42;;
62796;SDS011;48839;48.546;-4.178;2024-02-26T10:49:00;7.90;;;2.15;;
62796;SDS011;48839;48.546;-4.178;2024-02-26T10:51:27;8.40;;;2.03;;
62796;SDS011;48839;48.546;-4.178;2024-02-26T10:53:58;11.43;;;2.05;;
62796;SDS011;48839;48.546;-4.178;2024-02-26T10:56:27;7.63;;;2.47;;
62796;SDS011;48839;48.546;-4.178;2024-02-26T10:58:54;7.85;;;2.15;;
62796;SDS011;48839;48.546;-4.178;2024-02-26T11:01:21;9.73;;;2.75;;
62796;SDS011;48839;48.546;-4.178;2024-02-26T11:03:50;5.50;;;2.38;;
62796;SDS011;48839;48.546;-4.178;2024-02-26T11:06:16;4.65;;;2.25;;
62796;SDS011;48839;48.546;-4.178;2024-02-26T11:08:43;8.98;;;2.35;;
62796;SDS011;48839;48.546;-4.178;2024-02-26T11:11:09;5.90;;;2.17;;
62796;SDS011;48839;48.546;-4.178;2024-02-26T11:13:40;10.80;;;2.30;;
62796;SDS011;48839;48.546;-4.178;2024-02-26T11:16:09;8.85;;;2.22;;
62796;SDS011;48839;48.546;-4.178;2024-02-26T11:18:35;12.68;;;2.47;;
62796;SDS011;48839;48.546;-4.178;2024-02-26T11:21:02;9.07;;;2.25;;
62796;SDS011;48839;48.546;-4.178;2024-02-26T11:23:29;9.07;;;2.83;;
62796;SDS011;48839;48.546;-4.178;2024-02-26T11:25:56;11.18;;;3.05;;
62796;SDS011;48839;48.546;-4.178;2024-02-26T11:28:24;8.00;;;2.45;;
62796;SDS011;48839;48.546;-4.178;2024-02-26T11:30:52;5.30;;;2.05;;
62796;SDS011;48839;48.546;-4.178;2024-02-26T11:33:19;7.47;;;2.00;;
62796;SDS011;48839;48.546;-4.178;2024-02-26T11:35:45;5.13;;;1.88;;
62796;SDS011;48839;48.546;-4.178;2024-02-26T11:38:21;9.60;;;2.00;;
62796;SDS011;48839;48.546;-4.178;2024-02-26T11:40:47;6.93;;;2.05;;
62796;SDS011;48839;48.546;-4.178;2024-02-26T11:43:14;9.10;;;2.05;;
62796;SDS011;48839;48.546;-4.178;2024-02-26T11:48:16;7.85;;;2.17;;
62796;SDS011;48839;48.546;-4.178;2024-02-26T11:50:49;6.85;;;1.92;;
62796;SDS011;48839;48.546;-4.178;2024-02-26T11:55:48;7.65;;;2.03;;
62796;SDS011;48839;48.546;-4.178;2024-02-26T11:58:34;8.60;;;2.10;;
62796;SDS011;48839;48.546;-4.178;2024-02-26T12:01:03;11.48;;;2.88;;
62796;SDS011;48839;48.546;-4.178;2024-02-26T12:03:29;7.40;;;1.63;;
62796;SDS011;48839;48.546;-4.178;2024-02-26T12:05:55;9.20;;;2.10;;
62796;SDS011;48839;48.546;-4.178;2024-02-26T12:08:22;3.97;;;1.83;;
62796;SDS011;48839;48.546;-4.178;2024-02-26T12:10:48;7.75;;;2.45;;
62796;SDS011;48839;48.546;-4.178;2024-02-26T12:13:16;6.82;;;1.70;;
62796;SDS011;48839;48.546;-4.178;2024-02-26T12:15:45;8.80;;;2.25;;
62796;SDS011;48839;48.546;-4.178;2024-02-26T12:18:18;4.43;;;1.98;;
62796;SDS011;48839;48.546;-4.178;2024-02-26T12:20:45;5.75;;;1.85;;
62796;SDS011;48839;48.546;-4.178;2024-02-26T12:23:15;10.00;;;1.88;;
62796;SDS011;48839;48.546;-4.178;2024-02-26T12:25:43;16.55;;;3.20;;
62796;SDS011;48839;48.546;-4.178;2024-02-26T12:28:14;8.50;;;1.95;;
62796;SDS011;48839;48.546;-4.178;2024-02-26T12:30:40;8.55;;;2.13;;
62796;SDS011;48839;48.546;-4.178;2024-02-26T12:33:06;8.77;;;1.85;;
62796;SDS011;48839;48.546;-4.178;2024-02-26T12:35:33;4.32;;;1.75;;
62796;SDS011;48839;48.546;-4.178;2024-02-26T12:38:00;4.43;;;1.73;;
62796;SDS011;48839;48.546;-4.178;2024-02-26T12:40:27;6.35;;;2.05;;
62796;SDS011;48839;48.546;-4.178;2024-02-26T12:42:54;8.57;;;1.90;;
62796;SDS011;48839;48.546;-4.178;2024-02-26T12:45:20;9.82;;;2.05;;
62796;SDS011;48839;48.546;-4.178;2024-02-26T12:47:47;8.73;;;2.35;;
62796;SDS011;48839;48.546;-4.178;2024-02-26T12:50:15;7.18;;;1.95;;
62796;SDS011;48839;48.546;-4.178;2024-02-26T12:52:44;6.43;;;1.95;;
62796;SDS011;48839;48.546;-4.178;2024-02-26T12:55:13;6.90;;;1.98;;
62796;SDS011;48839;48.546;-4.178;2024-02-26T12:57:40;5.68;;;1.60;;
62796;SDS011;48839;48.546;-4.178;2024-02-26T13:00:13;7.20;;;1.65;;
62796;SDS011;48839;48.546;-4.178;2024-02-26T13:02:41;4.10;;;1.50;;
62796;SDS011;48839;48.546;-4.178;2024-02-26T13:05:10;7.18;;;1.70;;
62796;SDS011;48839;48.546;-4.178;2024-02-26T13:07:40;5.85;;;1.98;;
62796;SDS011;48839;48.546;-4.178;2024-02-26T13:10:07;6.30;;;1.65;;
62796;SDS011;48839;48.546;-4.178;2024-02-26T13:12:33;2.90;;;1.48;;
62796;SDS011;48839;48.546;-4.178;2024-02-26T13:15:00;6.25;;;1.42;;
62796;SDS011;48839;48.546;-4.178;2024-02-26T13:17:27;7.88;;;2.22;;
62796;SDS011;48839;48.546;-4.178;2024-02-26T13:19:53;6.65;;;2.05;;
62796;SDS011;48839;48.546;-4.178;2024-02-26T13:22:23;4.57;;;1.10;;
62796;SDS011;48839;48.546;-4.178;2024-02-26T13:24:56;8.50;;;1.92;;
62796;SDS011;48839;48.546;-4.178;2024-02-26T13:27:23;5.07;;;1.88;;
62796;SDS011;48839;48.546;-4.178;2024-02-26T13:30:01;3.60;;;1.88;;
62796;SDS011;48839;48.546;-4.178;2024-02-26T13:32:27;7.45;;;2.08;;
62796;SDS011;48839;48.546;-4.178;2024-02-26T13:35:17;8.10;;;1.58;;
62796;SDS011;48839;48.546;-4.178;2024-02-26T13:37:43;8.25;;;1.83;;
62796;SDS011;48839;48.546;-4.178;2024-02-26T13:40:10;4.63;;;1.67;;
62796;SDS011;48839;48.546;-4.178;2024-02-26T13:42:39;6.30;;;2.35;;
62796;SDS011;48839;48.546;-4.178;2024-02-26T13:45:05;8.23;;;1.90;;
62796;SDS011;48839;48.546;-4.178;2024-02-26T13:47:35;10.07;;;2.30;;
62796;SDS011;48839;48.546;-4.178;2024-02-26T13:50:02;9.20;;;1.67;;
62796;SDS011;48839;48.546;-4.178;2024-02-26T13:52:29;8.75;;;1.80;;
62796;SDS011;48839;48.546;-4.178;2024-02-26T13:54:57;3.33;;;1.42;;
62796;SDS011;48839;48.546;-4.178;2024-02-26T13:57:24;5.18;;;1.73;;
62796;SDS011;48839;48.546;-4.178;2024-02-26T13:59:51;9.40;;;1.90;;
62796;SDS011;48839;48.546;-4.178;2024-02-26T14:02:17;4.43;;;1.10;;
62796;SDS011;48839;48.546;-4.178;2024-02-26T14:04:43;9.45;;;2.42;;
62796;SDS011;48839;48.546;-4.178;2024-02-26T14:07:10;5.15;;;1.50;;
62796;SDS011;48839;48.546;-4.178;2024-02-26T14:09:36;5.78;;;1.88;;
62796;SDS011;48839;48.546;-4.178;2024-02-26T14:12:03;3.22;;;1.60;;
62796;SDS011;48839;48.546;-4.178;2024-02-26T14:14:29;5.47;;;1.52;;
62796;SDS011;48839;48.546;-4.178;2024-02-26T14:16:59;8.43;;;1.95;;
62796;SDS011;48839;48.546;-4.178;2024-02-26T14:19:25;2.53;;;1.40;;
62796;SDS011;48839;48.546;-4.178;2024-02-26T14:21:51;5.07;;;2.03;;
62796;SDS011;48839;48.546;-4.178;2024-02-26T14:24:18;3.90;;;1.83;;
62796;SDS011;48839;48.546;-4.178;2024-02-26T14:26:44;4.90;;;2.40;;
62796;SDS011;48839;48.546;-4.178;2024-02-26T14:29:11;3.42;;;1.65;;
62796;SDS011;48839;48.546;-4.178;2024-02-26T14:31:37;3.90;;;1.75;;
62796;SDS011;48839;48.546;-4.178;2024-02-26T14:34:03;6.10;;;1.40;;
62796;SDS011;48839;48.546;-4.178;2024-02-26T14:36:29;7.95;;;1.67;;
62796;SDS011;48839;48.546;-4.178;2024-02-26T14:38:56;5.13;;;2.10;;
62796;SDS011;48839;48.546;-4.178;2024-02-26T14:41:22;5.30;;;1.85;;
62796;SDS011;48839;48.546;-4.178;2024-02-26T14:43:48;8.43;;;1.70;;
62796;SDS011;48839;48.546;-4.178;2024-02-26T14:46:14;3.35;;;1.58;;
62796;SDS011;48839;48.546;-4.178;2024-02-26T14:48:40;6.82;;;1.63;;
62796;SDS011;48839;48.546;-4.178;2024-02-26T14:51:07;11.35;;;2.28;;
62796;SDS011;48839;48.546;-4.178;2024-02-26T14:53:33;6.13;;;1.92;;
62796;SDS011;48839;48.546;-4.178;2024-02-26T14:56:00;5.65;;;1.70;;
62796;SDS011;48839;48.546;-4.178;2024-02-26T14:58:26;8.85;;;1.77;;
62796;SDS011;48839;48.546;-4.178;2024-02-26T15:00:52;3.88;;;1.50;;
62796;SDS011;48839;48.546;-4.178;2024-02-26T15:03:19;5.38;;;1.60;;
62796;SDS011;48839;48.546;-4.178;2024-02-26T15:05:45;3.17;;;1.50;;
62796;SDS011;48839;48.546;-4.178;2024-02-26T15:08:11;2.92;;;1.60;;
62796;SDS011;48839;48.546;-4.178;2024-02-26T15:10:40;9.02;;;1.75;;
62796;SDS011;48839;48.546;-4.178;2024-02-26T15:13:12;6.82;;;1.50;;
62796;SDS011;48839;48.546;-4.178;2024-02-26T15:15:38;4.60;;;1.67;;
62796;SDS011;48839;48.546;-4.178;2024-02-26T15:18:06;2.97;;;1.55;;
62796;SDS011;48839;48.546;-4.178;2024-02-26T15:20:33;4.68;;;1.40;;
62796;SDS011;48839;48.546;-4.178;2024-02-26T15:22:59;5.43;;;1.63;;
62796;SDS011;48839;48.546;-4.178;2024-02-26T15:25:25;3.50;;;1.75;;
62796;SDS011;48839;48.546;-4.178;2024-02-26T15:27:52;7.13;;;1.40;;
62796;SDS011;48839;48.546;-4.178;2024-02-26T15:30:18;9.90;;;1.58;;
62796;SDS011;48839;48.546;-4.178;2024-02-26T15:32:44;2.72;;;1.52;;
62796;SDS011;48839;48.546;-4.178;2024-02-26T15:35:10;2.33;;;1.45;;
62796;SDS011;48839;48.546;-4.178;2024-02-26T15:37:36;5.05;;;1.73;;
62796;SDS011;48839;48.546;-4.178;2024-02-26T15:40:03;7.57;;;2.13;;
62796;SDS011;48839;48.546;-4.178;2024-02-26T15:42:32;3.95;;;1.60;;